Time;durP1;ratioP1;P1;durP2;ratioP2;P2;SDS_P1;SDS_P2;PMS_P1;PMS_P2;Temp;Humidity;BMP_temperature;BMP_pressure;BME280_temperature;BME280_humidity;BME280_pressure;Samples;Min_cycle;Max_cycle;Signal;HPM_P1;HPM_P2
2021/11/24 00:01:56;;;;;;;14.77;9.10;;;;;;;-2.15;100.00;99098.03;5135614;27;20239;-62
2021/11/24 00:04:22;;;;;;;12.40;9.07;;;;;;;-2.18;100.00;99098.03;5135707;27;20214;-62
2021/11/24 00:06:49;;;;;;;13.00;9.47;;;;;;;-2.19;100.00;99098.91;5135556;27;20234;-62
2021/11/24 00:09:15;;;;;;;13.50;8.77;;;;;;;-2.15;100.00;99096.28;5135389;27;20215;-63
2021/11/24 00:11:42;;;;;;;11.93;8.13;;;;;;;-2.19;100.00;99096.31;5135390;27;20215;-62
2021/11/24 00:14:08;;;;;;;12.23;9.23;;;;;;;-2.19;100.00;99092.00;5135396;27;20217;-62
2021/11/24 00:16:36;;;;;;;12.83;8.97;;;;;;;-2.17;100.00;99099.75;5135316;27;20216;-63
2021/11/24 00:19:03;;;;;;;11.30;9.27;;;;;;;-2.10;100.00;99091.06;5133478;27;20681;-62
2021/11/24 00:21:30;;;;;;;12.23;9.23;;;;;;;-2.13;100.00;99096.28;5135490;27;20212;-62
2021/11/24 00:23:56;;;;;;;12.03;9.07;;;;;;;-2.07;100.00;99093.66;5135093;27;20216;-62
2021/11/24 00:26:23;;;;;;;11.47;8.30;;;;;;;-2.04;100.00;99094.53;5135343;27;20239;-62
2021/11/24 00:28:49;;;;;;;12.17;9.17;;;;;;;-2.01;100.00;99089.34;5135374;27;20244;-62
2021/11/24 00:31:16;;;;;;;14.33;9.70;;;;;;;-2.10;100.00;99094.53;5135294;27;20213;-62
2021/11/24 00:33:43;;;;;;;13.40;9.13;;;;;;;-2.07;100.00;99101.44;5134847;27;20219;-62
2021/11/24 00:36:10;;;;;;;30.47;17.87;;;;;;;-2.10;100.00;99093.66;5134979;27;20216;-62
2021/11/24 00:38:37;;;;;;;21.40;13.57;;;;;;;-2.14;100.00;99099.75;5134791;27;20205;-62
2021/11/24 00:41:04;;;;;;;18.63;11.23;;;;;;;-2.16;100.00;99091.09;5134997;27;20212;-62
2021/11/24 00:43:30;;;;;;;22.33;15.03;;;;;;;-2.17;100.00;99094.56;5134900;27;20214;-62
2021/11/24 00:45:57;;;;;;;20.30;12.23;;;;;;;-2.27;100.00;99087.72;5133420;27;20261;-62
2021/11/24 00:48:24;;;;;;;13.87;9.13;;;;;;;-2.39;100.00;99082.59;5134657;27;20593;-62
2021/11/24 00:50:52;;;;;;;12.77;9.73;;;;;;;-2.40;100.00;99083.47;5134597;27;20219;-62
2021/11/24 00:53:18;;;;;;;11.30;9.23;;;;;;;-2.49;100.00;99088.66;5134498;27;20213;-62
2021/11/24 00:55:45;;;;;;;11.77;9.20;;;;;;;-2.49;100.00;99096.41;5134586;27;20207;-62
2021/11/24 00:58:12;;;;;;;12.77;9.07;;;;;;;-2.47;100.00;99089.50;5134785;27;20219;-62
2021/11/24 01:00:38;;;;;;;11.40;8.40;;;;;;;-2.51;100.00;99088.63;5134464;27;20252;-62
2021/11/24 01:03:05;;;;;;;10.33;8.50;;;;;;;-2.40;100.00;99081.72;5134486;27;20214;-62
2021/11/24 01:05:32;;;;;;;12.03;8.37;;;;;;;-2.46;100.00;99080.88;5134279;27;20241;-62
2021/11/24 01:08:00;;;;;;;14.80;8.70;;;;;;;-2.40;100.00;99070.50;5134594;27;20212;-62
2021/11/24 01:10:27;;;;;;;14.37;8.93;;;;;;;-2.35;100.00;99073.91;5134355;27;20610;-62
2021/11/24 01:12:54;;;;;;;10.50;8.53;;;;;;;-2.34;100.00;99070.50;5132468;27;20209;-62
2021/11/24 01:15:20;;;;;;;10.50;8.43;;;;;;;-2.31;100.00;99079.09;5134314;27;20593;-62
2021/11/24 01:17:47;;;;;;;13.43;9.60;;;;;;;-2.38;100.00;99068.78;5134381;27;20210;-62
2021/11/24 01:20:14;;;;;;;11.23;8.37;;;;;;;-2.38;100.00;99074.78;5134093;27;20242;-62
2021/11/24 01:22:41;;;;;;;9.90;8.00;;;;;;;-2.41;100.00;99068.75;5134290;27;20207;-62
2021/11/24 01:25:11;;;;;;;13.10;8.50;;;;;;;-2.48;100.00;99073.13;5133626;27;20302;-62
2021/11/24 01:27:40;;;;;;;11.00;8.33;;;;;;;-2.46;100.00;99073.13;5133872;27;20703;-62
2021/11/24 01:30:08;;;;;;;12.67;9.40;;;;;;;-2.47;100.00;99069.66;5134396;27;20259;-62
2021/11/24 01:32:35;;;;;;;11.57;8.73;;;;;;;-2.51;100.00;99067.09;5133829;27;20288;-62
2021/11/24 01:35:02;;;;;;;12.90;9.13;;;;;;;-2.56;100.00;99071.41;5133890;27;20617;-62
2021/11/24 01:37:29;;;;;;;13.27;8.63;;;;;;;-2.54;100.00;99067.97;5132338;27;20215;-63
2021/11/24 01:39:56;;;;;;;14.03;9.87;;;;;;;-2.50;100.00;99068.81;5133856;27;20223;-62
2021/11/24 01:42:24;;;;;;;12.10;9.17;;;;;;;-2.60;100.00;99061.94;5134077;27;20218;-62
2021/11/24 01:44:50;;;;;;;12.10;9.43;;;;;;;-2.59;100.00;99063.66;5133917;27;20218;-62
2021/11/24 01:47:17;;;;;;;11.53;9.17;;;;;;;-2.56;100.00;99050.72;5133950;28;20234;-62
2021/11/24 01:49:44;;;;;;;11.67;8.27;;;;;;;-2.62;100.00;99053.31;5133690;28;20212;-62
2021/11/24 01:52:11;;;;;;;17.43;9.50;;;;;;;-2.63;100.00;99046.44;5133725;28;20306;-62
2021/11/24 01:54:37;;;;;;;12.10;9.07;;;;;;;-2.70;100.00;99042.97;5134073;28;20598;-63
2021/11/24 01:57:04;;;;;;;13.17;8.63;;;;;;;-2.66;100.00;99047.28;5133664;28;20211;-62
2021/11/24 01:59:32;;;;;;;14.23;8.93;;;;;;;-2.71;100.00;99040.38;5133795;28;20211;-62
2021/11/24 02:01:59;;;;;;;12.03;8.80;;;;;;;-2.67;100.00;99044.69;5133492;28;20215;-62
2021/11/24 02:04:25;;;;;;;13.20;9.70;;;;;;;-2.54;100.00;99041.22;5131945;28;20220;-62
2021/11/24 02:06:53;;;;;;;12.60;8.63;;;;;;;-2.47;100.00;99042.91;5133708;28;20220;-62
2021/11/24 02:09:21;;;;;;;13.30;8.67;;;;;;;-2.42;100.00;99036.00;5129340;28;20247;-62
2021/11/24 02:11:47;;;;;;;11.30;8.23;;;;;;;-2.38;100.00;99035.13;5133484;28;20240;-62
2021/11/24 02:14:15;;;;;;;12.80;9.03;;;;;;;-2.37;100.00;99034.25;5133825;28;20296;-62
2021/11/24 02:16:46;;;;;;;13.47;8.47;;;;;;;-2.39;100.00;99030.81;5133320;28;20276;-62
2021/11/24 02:19:13;;;;;;;10.60;8.20;;;;;;;-2.41;100.00;99038.59;5133300;28;20678;-62
2021/11/24 02:21:45;;;;;;;11.77;8.07;;;;;;;-2.38;100.00;99027.34;5133301;28;20686;-62
2021/11/24 02:24:12;;;;;;;14.33;8.47;;;;;;;-2.45;100.00;99020.50;5133632;28;20212;-62
2021/11/24 02:26:38;;;;;;;13.07;8.57;;;;;;;-2.56;100.00;99011.91;5133343;28;20680;-62
2021/11/24 02:29:05;;;;;;;14.17;8.47;;;;;;;-2.66;100.00;99017.97;5133409;28;20245;-62
2021/11/24 02:31:32;;;;;;;11.27;8.80;;;;;;;-2.45;100.00;99010.97;5132038;28;20586;-62
2021/11/24 02:33:58;;;;;;;10.27;8.30;;;;;;;-2.64;100.00;99008.50;5133203;28;20211;-62
2021/11/24 02:36:27;;;;;;;11.33;9.03;;;;;;;-2.77;100.00;99011.94;5136645;27;20240;-62
2021/11/24 02:38:54;;;;;;;12.27;8.43;;;;;;;-2.79;100.00;99008.53;5137462;27;20211;-62
2021/11/24 02:41:21;;;;;;;11.13;9.13;;;;;;;-2.95;100.00;99007.69;5137242;27;20208;-62
2021/11/24 02:43:48;;;;;;;12.73;9.00;;;;;;;-2.83;100.00;99006.78;5137273;27;20579;-62
2021/11/24 02:46:15;;;;;;;12.37;8.67;;;;;;;-2.92;100.00;99001.66;5137361;27;20209;-62
2021/11/24 02:48:41;;;;;;;11.50;7.90;;;;;;;-3.00;100.00;98998.25;5136869;27;20211;-62
2021/11/24 02:51:08;;;;;;;13.07;8.80;;;;;;;-3.01;100.00;99002.53;5136979;27;20600;-62
2021/11/24 02:53:37;;;;;;;11.43;7.73;;;;;;;-3.01;100.00;99002.53;5136878;27;20211;-62
2021/11/24 02:56:06;;;;;;;11.43;8.10;;;;;;;-3.03;100.00;98995.66;5135692;27;20216;-62
2021/11/24 02:58:32;;;;;;;13.97;9.47;;;;;;;-2.92;100.00;98999.94;5136384;27;20220;-62
2021/11/24 03:01:02;;;;;;;10.00;8.00;;;;;;;-3.02;100.00;98995.66;5136771;27;20548;-62
2021/11/24 03:03:28;;;;;;;12.03;8.60;;;;;;;-3.07;100.00;98996.53;5136848;27;20205;-63
2021/11/24 03:05:55;;;;;;;13.80;9.13;;;;;;;-3.05;100.00;98994.81;5136674;27;20215;-62
2021/11/24 03:08:21;;;;;;;10.87;8.77;;;;;;;-3.11;100.00;98994.81;5136678;27;20216;-62
2021/11/24 03:10:48;;;;;;;12.27;8.40;;;;;;;-3.14;100.00;98990.50;5136921;27;20219;-62
2021/11/24 03:13:16;;;;;;;12.40;8.77;;;;;;;-3.24;100.00;98993.13;5136708;27;20238;-62
2021/11/24 03:15:42;;;;;;;11.97;8.33;;;;;;;-3.26;100.00;98997.41;5136402;27;20690;-62
2021/11/24 03:18:09;;;;;;;10.43;8.20;;;;;;;-3.25;100.00;98991.41;5136324;27;20240;-62
2021/11/24 03:20:35;;;;;;;11.50;8.83;;;;;;;-3.26;100.00;98994.81;5136315;27;20207;-62
2021/11/24 03:23:02;;;;;;;11.73;9.10;;;;;;;-3.28;100.00;98986.22;5134561;27;20218;-62
2021/11/24 03:25:29;;;;;;;10.93;8.47;;;;;;;-3.31;100.00;98988.81;5136090;27;20695;-62
2021/11/24 03:27:56;;;;;;;11.40;8.63;;;;;;;-3.35;100.00;98981.94;5136544;27;20555;-62
2021/11/24 03:30:26;;;;;;;12.73;8.43;;;;;;;-3.34;100.00;98984.53;5136653;27;20263;-62
2021/11/24 03:32:54;;;;;;;13.17;8.57;;;;;;;-3.32;100.00;98975.03;5136239;27;20208;-62
2021/11/24 03:35:22;;;;;;;10.87;8.17;;;;;;;-3.32;100.00;98979.31;5136460;27;20338;-62
2021/11/24 03:37:51;;;;;;;12.13;8.40;;;;;;;-3.26;100.00;98966.38;5135894;27;20237;-62
2021/11/24 03:40:17;;;;;;;13.93;8.40;;;;;;;-3.24;100.00;98969.84;5136229;27;20219;-62
2021/11/24 03:42:46;;;;;;;14.90;8.33;;;;;;;-3.30;100.00;98964.69;5136192;27;20216;-62
2021/11/24 03:45:14;;;;;;;11.43;8.13;;;;;;;-3.36;100.00;98964.72;5136165;27;20212;-62
2021/11/24 03:47:42;;;;;;;13.97;8.83;;;;;;;-3.27;100.00;98975.00;5135428;27;20235;-62
2021/11/24 03:50:10;;;;;;;11.93;8.63;;;;;;;-3.34;100.00;98975.88;5134481;27;20225;-62
2021/11/24 03:52:37;;;;;;;18.27;9.50;;;;;;;-3.37;100.00;98973.31;5135804;27;20216;-62
2021/11/24 03:55:06;;;;;;;13.40;9.10;;;;;;;-3.35;100.00;98967.28;5135651;27;20212;-62
2021/11/24 03:57:32;;;;;;;15.37;9.27;;;;;;;-3.44;100.00;98967.28;5135823;27;21130;-62
2021/11/24 03:59:59;;;;;;;12.37;9.10;;;;;;;-3.38;100.00;98958.66;5136082;27;20575;-62
2021/11/24 04:02:26;;;;;;;10.20;8.17;;;;;;;-3.37;100.00;98950.91;5135492;27;20222;-62
2021/11/24 04:04:54;;;;;;;10.50;8.47;;;;;;;-3.43;100.00;98955.25;5135676;27;20209;-62
2021/11/24 04:07:20;;;;;;;12.00;8.47;;;;;;;-3.43;100.00;98942.31;5135326;27;20315;-62
2021/11/24 04:09:49;;;;;;;11.57;8.53;;;;;;;-3.43;100.00;98950.06;5135689;27;20205;-62
2021/11/24 04:12:15;;;;;;;12.67;8.13;;;;;;;-3.47;100.00;98961.28;5135838;27;20667;-62
2021/11/24 04:14:42;;;;;;;12.53;8.43;;;;;;;-3.48;100.00;98956.97;5134054;27;20208;-62
2021/11/24 04:17:08;;;;;;;13.23;9.43;;;;;;;-3.41;100.00;98963.84;5135056;27;20238;-62
2021/11/24 04:19:35;;;;;;;13.27;9.37;;;;;;;-3.46;100.00;98955.22;5135561;27;20210;-62
2021/11/24 04:22:04;;;;;;;12.30;9.03;;;;;;;-3.44;100.00;98959.53;5135564;27;20220;-62
2021/11/24 04:24:30;;;;;;;13.07;8.97;;;;;;;-3.53;100.00;98949.22;5135222;27;20215;-62
2021/11/24 04:26:57;;;;;;;11.27;8.33;;;;;;;-3.57;100.00;98946.63;5135109;27;20207;-62
2021/11/24 04:29:23;;;;;;;13.40;8.47;;;;;;;-3.54;100.00;98950.06;5134921;27;20266;-62
2021/11/24 04:31:50;;;;;;;12.00;9.10;;;;;;;-3.55;100.00;98942.34;5134921;27;20215;-62
2021/11/24 04:34:17;;;;;;;11.50;8.37;;;;;;;-3.48;100.00;98949.22;5134839;27;20210;-62
2021/11/24 04:36:43;;;;;;;14.13;9.27;;;;;;;-3.43;100.00;98945.75;5135083;27;20240;-62
2021/11/24 04:39:12;;;;;;;17.77;10.43;;;;;;;-3.26;100.00;98945.72;5135121;27;20239;-62
2021/11/24 04:41:38;;;;;;;12.60;9.27;;;;;;;-3.34;100.00;98944.88;5133362;27;20225;-62
2021/11/24 04:44:05;;;;;;;14.47;10.00;;;;;;;-3.36;100.00;98946.63;5135076;27;20216;-62
2021/11/24 04:46:32;;;;;;;15.87;9.80;;;;;;;-3.41;100.00;98943.16;5134815;27;20213;-62
2021/11/24 04:48:59;;;;;;;13.40;9.70;;;;;;;-3.49;100.00;98945.75;5123600;27;20212;-62
2021/11/24 04:51:27;;;;;;;13.20;9.53;;;;;;;-3.50;100.00;98943.16;5134637;27;20208;-62
2021/11/24 04:53:53;;;;;;;12.80;9.33;;;;;;;-3.63;100.00;98944.03;5134889;27;20209;-62
2021/11/24 04:56:21;;;;;;;15.00;10.13;;;;;;;-3.69;100.00;98936.31;5134877;27;20213;-62
2021/11/24 04:58:52;;;;;;;16.50;9.37;;;;;;;-3.75;100.00;98941.47;5133475;27;20240;-62
2021/11/24 05:01:19;;;;;;;14.37;9.30;;;;;;;-3.83;100.00;98944.06;5134910;27;20689;-62
2021/11/24 05:03:45;;;;;;;14.93;10.23;;;;;;;-3.82;100.00;98939.75;5134213;27;20209;-62
2021/11/24 05:06:12;;;;;;;13.10;9.17;;;;;;;-3.83;100.00;98940.63;5134561;27;20277;-62
2021/11/24 05:08:40;;;;;;;13.23;9.33;;;;;;;-3.90;100.00;98936.31;5132697;27;20210;-62
2021/11/24 05:11:07;;;;;;;12.27;9.50;;;;;;;-3.95;100.00;98940.63;5134494;27;20224;-62
2021/11/24 05:13:36;;;;;;;12.37;9.03;;;;;;;-3.95;100.00;98945.78;5134401;27;20217;-62
2021/11/24 05:16:04;;;;;;;11.83;9.07;;;;;;;-3.93;100.00;98941.47;5134171;27;20214;-62
2021/11/24 05:18:35;;;;;;;12.40;9.13;;;;;;;-3.97;100.00;98934.59;5134254;27;20328;-62
2021/11/24 05:21:05;;;;;;;18.27;10.07;;;;;;;-3.99;100.00;98939.75;5134306;27;20211;-62
2021/11/24 05:23:36;;;;;;;13.77;9.63;;;;;;;-4.01;100.00;98944.06;5134071;27;20220;-62
2021/11/24 05:26:03;;;;;;;12.87;10.07;;;;;;;-4.03;100.00;98944.94;5134428;27;20216;-62
2021/11/24 05:28:30;;;;;;;14.07;9.83;;;;;;;-3.97;100.00;98939.75;5134288;27;20575;-62
2021/11/24 05:30:58;;;;;;;16.50;11.30;;;;;;;-4.00;100.00;98937.16;5133965;27;20221;-62
2021/11/24 05:33:24;;;;;;;14.40;10.77;;;;;;;-3.99;100.00;98936.31;5132691;27;20221;-62
2021/11/24 05:35:51;;;;;;;16.10;11.33;;;;;;;-3.99;100.00;98936.31;5133636;27;20217;-63
2021/11/24 05:38:18;;;;;;;14.43;12.00;;;;;;;-4.05;100.00;98936.28;5133814;27;20240;-62
2021/11/24 05:40:45;;;;;;;13.77;11.27;;;;;;;-4.05;100.00;98939.75;5133831;27;20705;-62
2021/11/24 05:43:13;;;;;;;14.10;10.87;;;;;;;-4.05;100.00;98936.28;5133681;27;20667;-62
2021/11/24 05:45:44;;;;;;;15.97;10.60;;;;;;;-4.04;100.00;98933.72;5133859;27;20222;-62
2021/11/24 05:48:13;;;;;;;12.53;9.27;;;;;;;-4.05;100.00;98931.13;5133941;27;20682;-62
2021/11/24 05:50:41;;;;;;;12.00;9.40;;;;;;;-4.07;100.00;98932.88;5134129;27;20677;-62
2021/11/24 05:53:08;;;;;;;15.20;9.37;;;;;;;-4.05;100.00;98931.13;5133572;28;20809;-62
2021/11/24 05:55:34;;;;;;;13.83;8.80;;;;;;;-4.07;100.00;98927.69;5133672;28;20231;-62
2021/11/24 05:58:01;;;;;;;13.20;8.83;;;;;;;-4.05;100.00;98915.66;5133812;28;20243;-62
2021/11/24 06:00:28;;;;;;;15.53;9.63;;;;;;;-4.10;100.00;98912.22;5132194;28;20215;-62
2021/11/24 06:02:54;;;;;;;13.67;9.57;;;;;;;-4.08;100.00;98915.66;5133763;28;20211;-62
2021/11/24 06:05:22;;;;;;;12.77;9.17;;;;;;;-4.15;100.00;98914.78;5133398;28;20216;-62
2021/11/24 06:07:49;;;;;;;13.10;9.47;;;;;;;-4.20;100.00;98919.09;5133766;28;20210;-62
2021/11/24 06:10:16;;;;;;;13.73;9.27;;;;;;;-4.26;100.00;98923.38;5135066;27;20554;-62
2021/11/24 06:12:42;;;;;;;13.57;9.80;;;;;;;-4.27;100.00;98924.25;5137894;27;20212;-62
2021/11/24 06:15:14;;;;;;;13.83;9.63;;;;;;;-4.29;100.00;98916.50;5137859;27;20211;-62
2021/11/24 06:17:40;;;;;;;15.23;10.53;;;;;;;-4.32;100.00;98915.63;5137767;27;20244;-62
2021/11/24 06:20:08;;;;;;;14.43;10.07;;;;;;;-4.37;100.00;98913.06;5137795;27;20211;-62
2021/11/24 06:22:36;;;;;;;14.70;9.97;;;;;;;-4.31;100.00;98910.47;5137795;27;20212;-62
2021/11/24 06:25:03;;;;;;;16.10;9.93;;;;;;;-4.41;100.00;98910.47;5137402;27;20214;-62
2021/11/24 06:27:29;;;;;;;14.83;9.90;;;;;;;-4.37;100.00;98907.03;5136082;27;20210;-62
2021/11/24 06:29:56;;;;;;;15.00;10.57;;;;;;;-4.37;100.00;98907.03;5137754;27;20244;-62
2021/11/24 06:32:22;;;;;;;15.27;10.10;;;;;;;-4.34;100.00;98899.31;5137516;27;20209;-62
2021/11/24 06:34:49;;;;;;;17.07;10.63;;;;;;;-4.40;100.00;98909.63;5137434;27;20197;-62
2021/11/24 06:37:15;;;;;;;18.27;11.77;;;;;;;-4.42;100.00;98907.03;5137466;27;20240;-62
2021/11/24 06:39:43;;;;;;;17.63;11.23;;;;;;;-4.40;100.00;98902.72;5137178;27;20207;-62
2021/11/24 06:42:10;;;;;;;14.80;10.33;;;;;;;-4.40;100.00;98901.88;5137427;27;20234;-62
2021/11/24 06:44:36;;;;;;;17.20;10.97;;;;;;;-4.41;100.00;98905.31;5136947;27;20215;-62
2021/11/24 06:47:04;;;;;;;20.47;11.07;;;;;;;-4.44;100.00;98903.59;5136988;27;20218;-62
2021/11/24 06:49:30;;;;;;;20.23;11.67;;;;;;;-4.47;100.00;98907.88;5136903;27;20210;-62
2021/11/24 06:51:57;;;;;;;16.10;10.20;;;;;;;-4.52;100.00;98904.44;5136155;27;20678;-62
2021/11/24 06:54:23;;;;;;;16.17;10.03;;;;;;;-4.46;100.00;98896.69;5136098;27;20216;-62
2021/11/24 06:56:51;;;;;;;15.23;10.60;;;;;;;-4.52;100.00;98901.84;5136941;27;20207;-62
2021/11/24 06:59:18;;;;;;;18.67;11.87;;;;;;;-4.47;100.00;98907.88;5136820;27;20229;-62
2021/11/24 07:01:45;;;;;;;23.97;12.43;;;;;;;-4.32;100.00;98898.44;5136843;27;20209;-62
2021/11/24 07:04:12;;;;;;;21.87;12.90;;;;;;;-4.21;100.00;98903.59;5137117;27;20206;-62
2021/11/24 07:06:40;;;;;;;25.40;13.90;;;;;;;-4.18;100.00;98901.91;5125760;27;20220;-62
2021/11/24 07:09:09;;;;;;;24.20;13.87;;;;;;;-4.09;100.00;98901.03;5136780;27;20274;-62
2021/11/24 07:11:36;;;;;;;25.77;14.63;;;;;;;-4.10;100.00;98897.59;5136933;27;20210;-62
2021/11/24 07:14:04;;;;;;;25.57;13.53;;;;;;;-4.06;100.00;98901.03;5136593;27;20215;-62
2021/11/24 07:16:31;;;;;;;25.33;13.93;;;;;;;-4.02;100.00;98905.34;5136797;27;20296;-61
2021/11/24 07:18:58;;;;;;;24.23;14.03;;;;;;;-3.95;100.00;98899.31;5134958;27;20592;-61
2021/11/24 07:21:25;;;;;;;28.57;14.53;;;;;;;-3.86;100.00;98896.75;5135553;27;20301;-61
2021/11/24 07:23:51;;;;;;;29.03;14.27;;;;;;;-3.75;100.00;98900.16;5136289;27;20222;-62
2021/11/24 07:26:18;;;;;;;22.77;13.40;;;;;;;-3.68;100.00;98894.16;5125089;27;20209;-62
2021/11/24 07:28:44;;;;;;;26.93;14.43;;;;;;;-3.59;100.00;98896.69;5136575;27;20239;-62
2021/11/24 07:31:13;;;;;;;29.30;14.70;;;;;;;-3.55;100.00;98903.59;5136519;27;20306;-62
2021/11/24 07:33:39;;;;;;;23.90;13.63;;;;;;;-3.46;100.00;98898.38;5136255;27;20219;-62
2021/11/24 07:36:06;;;;;;;24.77;13.30;;;;;;;-3.42;100.00;98894.94;5136490;27;20221;-61
2021/11/24 07:38:32;;;;;;;26.17;13.97;;;;;;;-3.31;100.00;98891.47;5136086;27;20244;-62
2021/11/24 07:40:59;;;;;;;26.50;13.73;;;;;;;-3.23;100.00;98891.44;5135943;27;20707;-62
2021/11/24 07:43:26;;;;;;;25.20;13.70;;;;;;;-3.10;100.00;98887.94;5135918;27;20217;-61
2021/11/24 07:45:53;;;;;;;27.83;14.97;;;;;;;-2.98;100.00;98886.19;5134217;27;20210;-61
2021/11/24 07:48:22;;;;;;;28.00;14.70;;;;;;;-2.82;100.00;98884.38;5136007;27;20219;-61
2021/11/24 07:50:48;;;;;;;28.90;15.17;;;;;;;-2.73;100.00;98879.16;5135772;27;20217;-61
2021/11/24 07:53:15;;;;;;;30.40;15.30;;;;;;;-2.63;100.00;98880.84;5135745;27;20300;-61
2021/11/24 07:55:41;;;;;;;26.23;15.00;;;;;;;-2.50;100.00;98883.31;5135741;27;20221;-61
2021/11/24 07:58:08;;;;;;;25.03;13.47;;;;;;;-2.40;100.00;98878.97;5135978;27;20241;-61
2021/11/24 08:00:35;;;;;;;29.57;15.20;;;;;;;-2.36;100.00;98888.41;5135836;27;20220;-61
2021/11/24 08:03:01;;;;;;;25.20;14.30;;;;;;;-2.29;100.00;98877.16;5135858;27;20567;-61
2021/11/24 08:05:29;;;;;;;25.13;14.40;;;;;;;-2.20;100.00;98887.47;5135924;27;20205;-62
2021/11/24 08:07:56;;;;;;;28.77;15.47;;;;;;;-2.08;100.00;98880.44;5136152;27;20303;-61
2021/11/24 08:10:23;;;;;;;32.90;17.37;;;;;;;-1.85;100.00;98882.88;5135557;27;20207;-62
2021/11/24 08:12:50;;;;;;;33.67;17.07;;;;;;;-1.61;100.00;98874.88;5115547;27;20230;-61
2021/11/24 08:15:16;;;;;;;40.50;20.33;;;;;;;-1.31;100.00;98864.16;5135516;27;20583;-62
2021/11/24 08:17:43;;;;;;;42.23;20.33;;;;;;;-1.03;100.00;98857.81;5135431;27;20221;-61
2021/11/24 08:20:10;;;;;;;45.17;21.40;;;;;;;-0.81;100.00;98862.69;5135515;27;20208;-61
2021/11/24 08:22:38;;;;;;;44.73;20.30;;;;;;;-0.63;100.00;98853.81;5135121;27;20678;-61
2021/11/24 08:25:07;;;;;;;42.97;19.40;;;;;;;-0.44;100.00;98855.28;5135016;27;20709;-62
2021/11/24 08:27:33;;;;;;;43.60;19.60;;;;;;;-0.24;100.00;98856.72;5134917;27;20216;-61
2021/11/24 08:30:00;;;;;;;38.90;20.37;;;;;;;-0.08;100.00;98848.66;5135239;27;20251;-61
2021/11/24 08:32:26;;;;;;;39.20;19.47;;;;;;;0.08;100.00;98851.84;5135150;27;20217;-61
2021/11/24 08:34:53;;;;;;;36.20;19.87;;;;;;;0.21;100.00;98851.63;5134890;27;20279;-62
2021/11/24 08:37:21;;;;;;;33.23;17.93;;;;;;;0.33;100.00;98851.38;5129894;27;20681;-62
2021/11/24 08:39:50;;;;;;;36.07;18.40;;;;;;;0.44;100.00;98851.22;5133967;27;20264;-62
2021/11/24 08:42:16;;;;;;;36.00;18.73;;;;;;;0.51;100.00;98850.22;5134065;27;20213;-61
2021/11/24 08:44:43;;;;;;;33.60;18.43;;;;;;;0.55;100.00;98842.34;5133380;27;20292;-61
2021/11/24 08:47:10;;;;;;;30.13;17.13;;;;;;;0.62;100.00;98843.94;5127792;27;20219;-61
2021/11/24 08:49:37;;;;;;;31.40;16.30;;;;;;;0.66;100.00;98835.19;5126578;27;20292;-61
2021/11/24 08:52:04;;;;;;;32.00;18.33;;;;;;;0.71;100.00;98833.38;5126223;27;20213;-61
2021/11/24 08:54:31;;;;;;;29.87;17.23;;;;;;;0.78;100.00;98826.28;5134139;27;20220;-61
2021/11/24 08:56:59;;;;;;;29.20;17.20;;;;;;;0.85;100.00;98835.69;5133686;27;20248;-61
2021/11/24 08:59:26;;;;;;;27.87;16.53;;;;;;;0.88;100.00;98830.44;5132724;27;20757;-61
2021/11/24 09:01:52;;;;;;;25.60;16.30;;;;;;;0.96;100.00;98834.59;5126770;27;20219;-61
2021/11/24 09:04:19;;;;;;;27.30;16.67;;;;;;;0.99;100.00;98824.09;5131806;27;20559;-62
2021/11/24 09:06:45;;;;;;;26.83;15.67;;;;;;;1.05;100.00;98826.59;5132340;27;20220;-61
2021/11/24 09:09:12;;;;;;;24.97;15.30;;;;;;;1.12;100.00;98815.16;5133533;27;20212;-61
2021/11/24 09:11:38;;;;;;;25.30;14.87;;;;;;;1.15;100.00;98820.31;5133411;27;20213;-61
2021/11/24 09:14:06;;;;;;;24.93;15.13;;;;;;;1.28;100.00;98816.53;5133116;27;20211;-61
2021/11/24 09:16:33;;;;;;;25.70;16.00;;;;;;;1.36;100.00;98817.22;5133326;27;20316;-61
2021/11/24 09:19:00;;;;;;;26.13;16.47;;;;;;;1.46;100.00;98810.94;5133386;27;20385;-61
2021/11/24 09:21:27;;;;;;;24.77;15.30;;;;;;;1.53;100.00;98809.91;5132845;27;20583;-62
2021/11/24 09:23:57;;;;;;;25.07;15.80;;;;;;;1.64;100.00;98805.31;5133580;27;20224;-61
2021/11/24 09:26:27;;;;;;;24.20;15.53;;;;;;;1.72;100.00;98803.38;5133227;27;20641;-61
2021/11/24 09:28:54;;;;;;;25.90;16.07;;;;;;;1.80;100.00;98796.25;5132320;27;20249;-60
2021/11/24 09:31:22;;;;;;;26.63;15.47;;;;;;;1.93;100.00;98802.88;5131710;27;20214;-60
2021/11/24 09:33:49;;;;;;;25.83;16.27;;;;;;;2.07;100.00;98787.72;5133278;27;20205;-59
2021/11/24 09:36:16;;;;;;;28.47;16.17;;;;;;;2.17;100.00;98785.75;5132329;27;20231;-59
2021/11/24 09:38:42;;;;;;;27.40;16.43;;;;;;;2.24;100.00;98782.94;5132890;27;20301;-59
2021/11/24 09:41:12;;;;;;;24.43;15.27;;;;;;;2.35;100.00;98780.06;5133220;27;20213;-60
2021/11/24 09:43:44;;;;;;;26.10;15.83;;;;;;;2.42;100.00;98772.03;5132471;27;20231;-60
2021/11/24 09:46:13;;;;;;;26.07;16.10;;;;;;;2.53;100.00;98764.78;5132456;27;20700;-60
2021/11/24 09:48:43;;;;;;;26.20;16.13;;;;;;;2.60;100.00;98758.47;5126452;27;20209;-59
2021/11/24 09:51:10;;;;;;;26.67;15.90;;;;;;;2.67;100.00;98766.97;5126624;27;20584;-59
2021/11/24 09:53:37;;;;;;;22.67;15.37;;;;;;;2.70;100.00;98757.31;5132081;28;20234;-59
2021/11/24 09:56:04;;;;;;;21.77;15.03;;;;;;;2.76;100.00;98754.53;5132682;28;20223;-60
2021/11/24 09:58:32;;;;;;;25.47;15.27;;;;;;;2.80;100.00;98748.31;5130775;28;20245;-59
2021/11/24 10:00:59;;;;;;;22.93;14.50;;;;;;;2.82;100.00;98743.06;5132579;28;20678;-59
2021/11/24 10:03:25;;;;;;;21.63;13.77;;;;;;;2.85;100.00;98740.34;5132756;28;20237;-59
2021/11/24 10:05:54;;;;;;;21.50;13.83;;;;;;;2.89;100.00;98735.00;5131372;27;20901;-59
2021/11/24 10:08:21;;;;;;;22.37;13.87;;;;;;;2.88;100.00;98738.50;5131262;28;20248;-59
2021/11/24 10:10:47;;;;;;;18.60;13.23;;;;;;;2.99;100.00;98728.63;5131472;28;20265;-59
2021/11/24 10:13:14;;;;;;;22.23;14.77;;;;;;;3.03;100.00;98722.41;5131965;28;20213;-59
2021/11/24 10:15:44;;;;;;;19.17;12.73;;;;;;;3.11;100.00;98723.03;5132872;28;20262;-59
2021/11/24 10:18:14;;;;;;;23.23;14.77;;;;;;;3.15;100.00;98714.22;5132335;28;20256;-60
2021/11/24 10:20:54;;;;;;;23.23;14.53;;;;;;;3.26;100.00;98712.13;5132084;28;20213;-59
2021/11/24 10:23:34;;;;;;;21.47;13.67;;;;;;;3.37;100.00;98710.00;5125702;28;20563;-60
2021/11/24 10:26:14;;;;;;;22.67;15.43;;;;;;;3.48;100.00;98700.06;5132404;28;20292;-60
2021/11/24 10:28:41;;;;;;;19.23;13.77;;;;;;;3.57;100.00;98691.94;5127215;28;20294;-60
2021/11/24 10:31:35;;;;;;;21.17;13.80;;;;;;;3.64;100.00;98688.22;5132782;28;20305;-60
2021/11/24 10:34:10;;;;;;;18.03;12.30;;;;;;;3.72;100.00;98688.81;5132664;28;20245;-60
2021/11/24 10:36:49;;;;;;;21.00;13.47;;;;;;;3.76;100.00;98682.59;5131534;28;20214;-60
2021/11/24 10:39:16;;;;;;;18.67;13.27;;;;;;;3.88;100.00;98681.31;5132292;28;20701;-60
2021/11/24 10:41:42;;;;;;;21.50;14.23;;;;;;;3.97;100.00;98676.63;5132800;28;20583;-60
2021/11/24 10:44:09;;;;;;;21.40;12.97;;;;;;;4.06;100.00;98676.31;5131566;28;20218;-60
2021/11/24 10:46:37;;;;;;;20.43;13.83;;;;;;;4.14;100.00;98663.81;5132313;28;20209;-60
2021/11/24 10:49:07;;;;;;;18.33;13.83;;;;;;;4.22;100.00;98664.38;5126082;28;20206;-61
2021/11/24 10:51:38;;;;;;;20.50;14.20;;;;;;;4.20;100.00;98655.75;5124526;28;20237;-61
2021/11/24 10:54:08;;;;;;;20.30;13.53;;;;;;;4.16;100.00;98651.53;5126373;28;20668;-61
2021/11/24 10:56:35;;;;;;;18.30;12.20;;;;;;;4.07;100.00;98645.78;5133798;27;20574;-60
2021/11/24 10:59:17;;;;;;;17.90;12.97;;;;;;;3.91;100.00;98650.69;5135294;27;20237;-60
2021/11/24 11:01:44;;;;;;;18.07;12.10;;;;;;;3.59;100.00;98640.47;5134684;27;20583;-61
2021/11/24 11:04:12;;;;;;;16.47;11.30;;;;;;;3.41;100.00;98637.59;5136057;27;20213;-60
2021/11/24 11:06:40;;;;;;;15.90;11.30;;;;;;;3.23;100.00;98626.00;5135088;27;20240;-60
2021/11/24 11:09:09;;;;;;;16.33;11.00;;;;;;;2.95;100.00;98624.31;5135733;27;20218;-60
2021/11/24 11:11:37;;;;;;;16.47;11.50;;;;;;;2.66;100.00;98617.41;5136013;27;20313;-60
2021/11/24 11:14:15;;;;;;;17.07;11.03;;;;;;;2.41;100.00;98624.25;5135187;27;20220;-60
2021/11/24 11:16:49;;;;;;;17.23;11.63;;;;;;;2.31;100.00;98612.38;5133931;27;20209;-61